Time;durP1;ratioP1;P1;durP2;ratioP2;P2;SDS_P1;SDS_P2;PMS_P1;PMS_P2;Temp;Humidity;BMP_temperature;BMP_pressure;BME280_temperature;BME280_humidity;BME280_pressure;Samples;Min_cycle;Max_cycle;Signal;HPM_P1;HPM_P2
2023/04/21 00:02:14;;;;;;;94.80;11.63;;;;;;;;;;4963660;28;20051;-64
2023/04/21 00:04:44;;;;;;;105.88;13.18;;;;;;;;;;4975314;28;20070;-64
2023/04/21 00:07:13;;;;;;;103.88;13.60;;;;;;;;;;4958717;28;22060;-64
2023/04/21 00:09:40;;;;;;;90.03;12.85;;;;;;;;;;4959186;28;20520;-65
2023/04/21 00:12:07;;;;;;;101.05;13.07;;;;;;;;;;4961492;28;20072;-65
2023/04/21 00:14:33;;;;;;;69.97;11.57;;;;;;;;;;4972705;28;20117;-63
2023/04/21 00:17:00;;;;;;;98.40;12.65;;;;;;;;;;4964125;28;20106;-63
2023/04/21 00:19:27;;;;;;;98.30;12.57;;;;;;;;;;4961277;28;20518;-67
2023/04/21 00:21:57;;;;;;;82.40;11.13;;;;;;;;;;4975675;28;20066;-64
2023/04/21 00:24:24;;;;;;;138.05;15.52;;;;;;;;;;4965886;28;20103;-65
2023/04/21 00:26:51;;;;;;;107.47;13.80;;;;;;;;;;4975895;28;20043;-64
2023/04/21 00:29:18;;;;;;;75.18;11.23;;;;;;;;;;4961772;28;20501;-65
2023/04/21 00:31:45;;;;;;;94.30;12.57;;;;;;;;;;4978492;28;20507;-64
2023/04/21 00:34:11;;;;;;;130.27;14.93;;;;;;;;;;4981469;28;20141;-63
2023/04/21 00:36:38;;;;;;;65.53;11.75;;;;;;;;;;4964169;28;20058;-65
2023/04/21 00:39:04;;;;;;;101.88;13.70;;;;;;;;;;4966050;28;20127;-64
2023/04/21 00:41:32;;;;;;;96.50;13.10;;;;;;;;;;4964196;28;20129;-65
2023/04/21 00:44:02;;;;;;;87.07;12.27;;;;;;;;;;4964079;28;20043;-64
2023/04/21 00:46:30;;;;;;;77.70;12.38;;;;;;;;;;4979672;28;20046;-66
2023/04/21 00:48:57;;;;;;;108.63;14.13;;;;;;;;;;4962417;28;20102;-64
2023/04/21 00:51:27;;;;;;;94.43;12.65;;;;;;;;;;4979482;28;20751;-64
2023/04/21 00:53:54;;;;;;;77.43;11.35;;;;;;;;;;4960292;28;20055;-63
2023/04/21 00:56:21;;;;;;;90.85;12.75;;;;;;;;;;4963754;28;20045;-64
2023/04/21 00:58:48;;;;;;;74.88;11.90;;;;;;;;;;4955711;28;20138;-64
2023/04/21 01:01:16;;;;;;;105.10;13.75;;;;;;;;;;4962901;28;20128;-64
2023/04/21 01:03:43;;;;;;;97.18;13.43;;;;;;;;;;4961276;28;20051;-64
2023/04/21 01:06:10;;;;;;;90.05;12.98;;;;;;;;;;4978377;28;20147;-65
2023/04/21 01:08:37;;;;;;;78.95;11.68;;;;;;;;;;4958137;28;20047;-67
2023/04/21 01:11:10;;;;;;;107.10;13.68;;;;;;;;;;4963514;28;20049;-63
2023/04/21 01:13:38;;;;;;;91.53;12.52;;;;;;;;;;4965050;28;20054;-64
2023/04/21 01:16:06;;;;;;;124.25;14.52;;;;;;;;;;4979038;28;20055;-64
2023/04/21 01:18:33;;;;;;;71.93;10.32;;;;;;;;;;4979213;28;20059;-65
2023/04/21 01:21:01;;;;;;;74.78;11.88;;;;;;;;;;4964390;28;20051;-65
2023/04/21 01:23:27;;;;;;;75.88;10.45;;;;;;;;;;4967803;28;20074;-64
2023/04/21 01:25:54;;;;;;;88.97;12.02;;;;;;;;;;4964287;28;20039;-65
2023/04/21 01:28:24;;;;;;;102.85;13.80;;;;;;;;;;4977732;28;20066;-65
2023/04/21 01:30:51;;;;;;;77.63;11.68;;;;;;;;;;4979860;28;20051;-65
2023/04/21 01:33:20;;;;;;;97.00;12.25;;;;;;;;;;4963480;28;20039;-64
2023/04/21 01:35:47;;;;;;;81.25;11.55;;;;;;;;;;4981255;28;20493;-65
2023/04/21 01:38:17;;;;;;;124.45;14.23;;;;;;;;;;4979801;28;20125;-65
2023/04/21 01:40:46;;;;;;;69.68;11.25;;;;;;;;;;4961396;28;20183;-65
2023/04/21 01:43:14;;;;;;;117.90;13.75;;;;;;;;;;4959864;28;20087;-64
2023/04/21 01:45:41;;;;;;;103.60;13.32;;;;;;;;;;4960853;28;20082;-65
2023/04/21 01:48:08;;;;;;;55.75;10.50;;;;;;;;;;4963429;28;20065;-64
2023/04/21 01:50:35;;;;;;;92.22;12.20;;;;;;;;;;4963410;28;20480;-65
2023/04/21 01:53:01;;;;;;;89.88;12.95;;;;;;;;;;4978978;28;20065;-64
2023/04/21 01:55:28;;;;;;;78.32;11.50;;;;;;;;;;4977678;28;20134;-63
2023/04/21 01:57:57;;;;;;;68.15;11.05;;;;;;;;;;4962737;28;20150;-66
2023/04/21 02:03:59;;;;;;;120.82;14.10;;;;;;;;;;4961453;28;20063;-71
2023/04/21 02:06:26;;;;;;;92.85;12.85;;;;;;;;;;4967855;28;20054;-71
2023/04/21 02:08:52;;;;;;;100.28;14.07;;;;;;;;;;4953398;28;20686;-71
2023/04/21 02:11:19;;;;;;;62.42;11.38;;;;;;;;;;4971728;28;20047;-70
2023/04/21 02:13:45;;;;;;;63.03;11.43;;;;;;;;;;4969785;28;20047;-71
2023/04/21 02:16:12;;;;;;;136.38;16.13;;;;;;;;;;4953890;28;20075;-71
2023/04/21 02:18:40;;;;;;;58.60;10.75;;;;;;;;;;4967178;28;20039;-71
2023/04/21 02:21:06;;;;;;;55.28;11.88;;;;;;;;;;4951743;28;20435;-71
2023/04/21 02:23:33;;;;;;;89.57;12.93;;;;;;;;;;4963709;28;20122;-70
2023/04/21 02:25:59;;;;;;;42.72;9.88;;;;;;;;;;4950733;28;20675;-71
2023/04/21 02:28:26;;;;;;;79.03;12.05;;;;;;;;;;4967081;28;20042;-71
2023/04/21 02:30:52;;;;;;;115.00;14.43;;;;;;;;;;4965984;28;20051;-71
2023/04/21 02:33:19;;;;;;;60.47;10.93;;;;;;;;;;4967298;28;20097;-71
2023/04/21 02:35:47;;;;;;;79.68;12.13;;;;;;;;;;4950445;28;20078;-71
2023/04/21 02:38:13;;;;;;;95.47;13.07;;;;;;;;;;4966866;28;20038;-71
2023/04/21 02:40:41;;;;;;;72.13;12.13;;;;;;;;;;4963552;28;20125;-71
2023/04/21 02:43:08;;;;;;;88.18;13.38;;;;;;;;;;4962801;28;20054;-71
2023/04/21 02:45:35;;;;;;;68.20;10.93;;;;;;;;;;4964527;28;20043;-71
2023/04/21 02:48:02;;;;;;;49.65;10.88;;;;;;;;;;4951309;28;20121;-70
2023/04/21 02:50:28;;;;;;;100.78;13.93;;;;;;;;;;4951599;28;20070;-70
2023/04/21 02:52:55;;;;;;;65.50;12.95;;;;;;;;;;4951523;28;20042;-71
2023/04/21 02:55:22;;;;;;;74.90;12.10;;;;;;;;;;4953082;28;20065;-71
2023/04/21 02:57:48;;;;;;;98.25;13.02;;;;;;;;;;4965110;28;20109;-71
2023/04/21 03:00:15;;;;;;;109.50;14.52;;;;;;;;;;4951244;28;20492;-71
2023/04/21 03:02:42;;;;;;;70.82;12.52;;;;;;;;;;4968553;28;20042;-71
2023/04/21 03:05:09;;;;;;;77.07;12.32;;;;;;;;;;5005641;28;20046;-71
2023/04/21 03:07:36;;;;;;;89.53;13.05;;;;;;;;;;5005299;28;20046;-70
2023/04/21 03:10:03;;;;;;;78.75;13.15;;;;;;;;;;5005928;28;20651;-71
2023/04/21 03:12:29;;;;;;;55.38;12.02;;;;;;;;;;4990801;28;20042;-70
2023/04/21 03:14:56;;;;;;;76.70;12.32;;;;;;;;;;4982830;28;20077;-70
2023/04/21 03:17:23;;;;;;;105.78;15.68;;;;;;;;;;5005020;28;20046;-71
2023/04/21 03:19:50;;;;;;;74.47;12.40;;;;;;;;;;5000668;28;20042;-71
2023/04/21 03:22:16;;;;;;;141.20;17.42;;;;;;;;;;5002316;28;20057;-71
2023/04/21 03:24:43;;;;;;;80.80;13.23;;;;;;;;;;4979913;28;20141;-70
2023/04/21 03:27:09;;;;;;;52.40;11.88;;;;;;;;;;5003986;28;20505;-71
2023/04/21 03:29:36;;;;;;;88.03;14.75;;;;;;;;;;5007155;28;20092;-71
2023/04/21 03:32:03;;;;;;;93.90;14.07;;;;;;;;;;5007745;28;20439;-70
2023/04/21 03:34:29;;;;;;;60.40;12.38;;;;;;;;;;5003812;28;20758;-71
2023/04/21 03:36:58;;;;;;;85.70;14.45;;;;;;;;;;4991248;28;20728;-71
2023/04/21 03:39:25;;;;;;;100.05;14.20;;;;;;;;;;4991481;28;20060;-71
2023/04/21 03:41:52;;;;;;;81.78;12.70;;;;;;;;;;5001771;28;20050;-70
2023/04/21 03:44:18;;;;;;;78.72;12.50;;;;;;;;;;4982725;28;21038;-71
2023/04/21 03:46:45;;;;;;;88.93;12.15;;;;;;;;;;5004574;28;20117;-70
2023/04/21 03:49:11;;;;;;;102.20;12.95;;;;;;;;;;5004315;28;20049;-71
2023/04/21 03:51:38;;;;;;;86.35;11.73;;;;;;;;;;5005758;28;20046;-71
2023/04/21 03:54:04;;;;;;;75.63;11.30;;;;;;;;;;5003886;28;20125;-70
2023/04/21 03:56:31;;;;;;;46.30;10.02;;;;;;;;;;5006039;28;20049;-71
2023/04/21 03:58:57;;;;;;;73.35;11.02;;;;;;;;;;5001859;28;20042;-71
2023/04/21 04:01:24;;;;;;;139.35;15.10;;;;;;;;;;5003775;28;20045;-71
2023/04/21 04:03:50;;;;;;;50.30;9.40;;;;;;;;;;5005277;28;20133;-70
2023/04/21 04:06:17;;;;;;;76.68;11.93;;;;;;;;;;5004391;28;20045;-71
2023/04/21 04:08:44;;;;;;;96.43;12.02;;;;;;;;;;5007198;28;20042;-70
2023/04/21 04:11:10;;;;;;;64.25;10.48;;;;;;;;;;5004148;28;20069;-72
2023/04/21 04:13:37;;;;;;;79.53;11.82;;;;;;;;;;5002612;28;20065;-72
2023/04/21 04:16:03;;;;;;;92.63;12.20;;;;;;;;;;5002303;28;20057;-71
2023/04/21 04:18:30;;;;;;;50.60;10.02;;;;;;;;;;5005203;28;20651;-71
2023/04/21 04:20:56;;;;;;;79.10;11.07;;;;;;;;;;5001595;28;20403;-71
2023/04/21 04:23:23;;;;;;;96.38;12.05;;;;;;;;;;5004282;28;20042;-71
2023/04/21 04:25:50;;;;;;;72.65;11.43;;;;;;;;;;5008154;28;20045;-70
2023/04/21 04:28:17;;;;;;;95.15;12.35;;;;;;;;;;5004499;28;20514;-71
2023/04/21 04:30:44;;;;;;;97.95;12.45;;;;;;;;;;5003599;28;20418;-70
2023/04/21 04:33:10;;;;;;;62.85;9.15;;;;;;;;;;5002853;28;20042;-70
2023/04/21 04:35:37;;;;;;;75.25;10.60;;;;;;;;;;5005488;28;20088;-69
2023/04/21 04:38:04;;;;;;;87.30;12.10;;;;;;;;;;5001566;28;20048;-71
2023/04/21 04:40:32;;;;;;;71.65;10.05;;;;;;;;;;4983125;28;20049;-71
2023/04/21 04:42:58;;;;;;;93.40;12.18;;;;;;;;;;5003739;28;20117;-72
2023/04/21 04:45:25;;;;;;;100.68;12.50;;;;;;;;;;5004566;28;20471;-72
2023/04/21 04:47:52;;;;;;;56.55;9.75;;;;;;;;;;5006843;28;20061;-72
2023/04/21 04:50:19;;;;;;;101.78;13.43;;;;;;;;;;4990200;28;20105;-72
2023/04/21 04:52:46;;;;;;;114.15;14.25;;;;;;;;;;5001880;28;20088;-71
2023/04/21 04:55:13;;;;;;;121.70;15.40;;;;;;;;;;5001425;28;20126;-72
2023/04/21 04:57:40;;;;;;;59.80;9.18;;;;;;;;;;5003843;28;20042;-72
2023/04/21 05:00:10;;;;;;;63.53;10.32;;;;;;;;;;5004877;28;20490;-72
2023/04/21 05:02:37;;;;;;;55.10;8.32;;;;;;;;;;5005499;28;20130;-72
2023/04/21 05:05:05;;;;;;;75.00;10.57;;;;;;;;;;5003478;28;20038;-72
2023/04/21 05:07:32;;;;;;;88.50;10.23;;;;;;;;;;5002629;28;20410;-72
2023/04/21 05:09:59;;;;;;;72.13;9.80;;;;;;;;;;4996258;28;20050;-72
2023/04/21 05:12:26;;;;;;;79.80;10.43;;;;;;;;;;5003660;28;20085;-71
2023/04/21 05:14:52;;;;;;;110.40;12.40;;;;;;;;;;5001395;28;20109;-72
2023/04/21 05:17:19;;;;;;;69.38;9.25;;;;;;;;;;5004050;28;20049;-66
2023/04/21 05:19:46;;;;;;;96.78;11.55;;;;;;;;;;5003619;28;20125;-71
2023/04/21 05:22:12;;;;;;;113.10;12.23;;;;;;;;;;5006698;28;20074;-72
2023/04/21 05:24:40;;;;;;;84.25;10.63;;;;;;;;;;5008228;28;20092;-72
2023/04/21 05:27:06;;;;;;;61.80;8.82;;;;;;;;;;4985593;28;20058;-72
2023/04/21 05:29:33;;;;;;;70.15;10.20;;;;;;;;;;5008415;28;20376;-72
2023/04/21 05:32:00;;;;;;;69.20;9.48;;;;;;;;;;5004610;28;20088;-72
2023/04/21 05:34:27;;;;;;;95.45;11.27;;;;;;;;;;5007688;28;20053;-72
2023/04/21 05:36:53;;;;;;;62.72;8.68;;;;;;;;;;5004343;28;20089;-72
2023/04/21 05:39:20;;;;;;;92.43;10.70;;;;;;;;;;5008027;28;20073;-71
2023/04/21 05:41:46;;;;;;;70.55;9.20;;;;;;;;;;5010004;28;20057;-71
2023/04/21 05:44:15;;;;;;;105.03;11.20;;;;;;;;;;5006086;28;20030;-71
2023/04/21 05:46:41;;;;;;;83.30;10.07;;;;;;;;;;5005187;28;20042;-72
2023/04/21 05:49:08;;;;;;;99.15;11.02;;;;;;;;;;5008705;28;20050;-72
2023/04/21 05:51:34;;;;;;;87.32;10.45;;;;;;;;;;5007463;28;20052;-71
2023/04/21 05:54:01;;;;;;;71.53;9.35;;;;;;;;;;5003924;28;20046;-71
2023/04/21 05:56:27;;;;;;;60.10;8.82;;;;;;;;;;5009204;28;20038;-71
2023/04/21 05:58:54;;;;;;;72.63;9.52;;;;;;;;;;5006807;28;20176;-70
2023/04/21 06:01:21;;;;;;;107.70;12.13;;;;;;;;;;5004647;28;20046;-70
2023/04/21 06:03:48;;;;;;;65.00;9.55;;;;;;;;;;5007089;28;20056;-72
2023/04/21 06:06:16;;;;;;;86.15;10.77;;;;;;;;;;5005388;28;20683;-69
2023/04/21 06:08:43;;;;;;;126.63;27.90;;;;;;;;;;5008128;28;20148;-71
2023/04/21 06:11:09;;;;;;;80.95;38.35;;;;;;;;;;5007234;28;20044;-74
2023/04/21 06:13:36;;;;;;;104.72;34.00;;;;;;;;;;5002865;28;20108;-74
2023/04/21 06:16:05;;;;;;;132.35;37.50;;;;;;;;;;5005528;28;20045;-74
2023/04/21 06:18:31;;;;;;;58.80;44.03;;;;;;;;;;5006226;28;20066;-74
2023/04/21 06:20:58;;;;;;;98.85;54.30;;;;;;;;;;5008373;28;20426;-74
2023/04/21 06:23:24;;;;;;;108.80;44.83;;;;;;;;;;5006067;28;20046;-74
2023/04/21 06:25:58;;;;;;;92.82;39.70;;;;;;;;;;5005950;28;20046;-74
2023/04/21 06:28:24;;;;;;;;;;;;;;;;;;5006421;28;20030;-74
2023/04/21 06:30:51;;;;;;;95.22;39.03;;;;;;;;;;5005001;28;19926;-75
2023/04/21 06:33:17;;;;;;;87.57;67.68;;;;;;;;;;5005237;28;20066;-75
2023/04/21 06:35:44;;;;;;;120.00;48.30;;;;;;;;;;5005829;28;20109;-75
2023/04/21 06:38:10;;;;;;;158.95;140.45;;;;;;;;;;5005936;28;20095;-75
2023/04/21 06:40:37;;;;;;;178.10;151.63;;;;;;;;;;5004793;28;20048;-76
2023/04/21 06:43:03;;;;;;;167.43;131.88;;;;;;;;;;4991827;28;20054;-74
2023/04/21 06:45:30;;;;;;;176.52;134.65;;;;;;;;;;5005729;28;20149;-74
2023/04/21 06:47:56;;;;;;;143.95;129.38;;;;;;;;;;5006676;28;20053;-74
2023/04/21 06:50:23;;;;;;;140.73;125.32;;;;;;;;;;5006590;28;20038;-74
2023/04/21 06:52:49;;;;;;;185.68;125.55;;;;;;;;;;5005623;28;20731;-75
2023/04/21 06:55:16;;;;;;;183.55;118.90;;;;;;;;;;5003614;28;20084;-74
2023/04/21 06:57:42;;;;;;;168.07;127.85;;;;;;;;;;5005536;28;20057;-74
2023/04/21 07:00:09;;;;;;;141.25;125.07;;;;;;;;;;5004669;28;20073;-75
2023/04/21 07:02:36;;;;;;;154.77;139.63;;;;;;;;;;5006118;28;20054;-74
2023/04/21 07:05:03;;;;;;;179.48;162.43;;;;;;;;;;5002833;28;20034;-74
2023/04/21 07:07:29;;;;;;;200.95;164.07;;;;;;;;;;4999855;28;20042;-75
2023/04/21 07:09:56;;;;;;;163.15;149.20;;;;;;;;;;5002677;28;20046;-74
2023/04/21 07:12:22;;;;;;;221.35;200.77;;;;;;;;;;5009356;28;20083;-75
2023/04/21 07:14:49;;;;;;;226.00;203.45;;;;;;;;;;5005141;28;20542;-76
2023/04/21 07:17:15;;;;;;;227.20;204.07;;;;;;;;;;5004018;28;20046;-75
2023/04/21 07:19:42;;;;;;;225.63;203.18;;;;;;;;;;5003660;28;20038;-74
2023/04/21 07:22:08;;;;;;;271.58;245.20;;;;;;;;;;5003087;28;20039;-76
2023/04/21 07:24:36;;;;;;;294.88;269.77;;;;;;;;;;5009834;28;20069;-75
2023/04/21 07:27:02;;;;;;;306.27;282.50;;;;;;;;;;5002755;28;20496;-74
2023/04/21 07:29:29;;;;;;;341.38;312.38;;;;;;;;;;5008575;28;20041;-75
2023/04/21 07:31:57;;;;;;;342.55;316.15;;;;;;;;;;5004862;28;20540;-75
2023/04/21 07:34:24;;;;;;;351.60;322.65;;;;;;;;;;5004205;28;20038;-74
2023/04/21 07:36:51;;;;;;;338.05;309.08;;;;;;;;;;5005698;28;20046;-75
2023/04/21 07:39:17;;;;;;;307.13;280.83;;;;;;;;;;5004756;28;20072;-76
2023/04/21 07:41:45;;;;;;;303.10;277.55;;;;;;;;;;5006384;28;20052;-75
2023/04/21 07:44:11;;;;;;;302.65;275.80;;;;;;;;;;5001545;28;20050;-75
2023/04/21 07:46:38;;;;;;;309.45;282.25;;;;;;;;;;5000127;28;20045;-75
2023/04/21 07:49:04;;;;;;;283.55;258.95;;;;;;;;;;5005088;28;20049;-74
2023/04/21 07:51:31;;;;;;;292.10;269.15;;;;;;;;;;5005548;28;20043;-74
2023/04/21 07:53:58;;;;;;;289.20;266.58;;;;;;;;;;5007773;28;20038;-75
2023/04/21 07:56:24;;;;;;;286.05;259.40;;;;;;;;;;5002782;28;20088;-74
2023/04/21 07:58:51;;;;;;;256.08;228.82;;;;;;;;;;5002534;28;20455;-75
2023/04/21 08:01:19;;;;;;;258.85;228.48;;;;;;;;;;4982757;28;20565;-75
2023/04/21 08:03:46;;;;;;;247.43;228.35;;;;;;;;;;5004444;28;20072;-74
2023/04/21 08:06:13;;;;;;;253.23;231.50;;;;;;;;;;5002835;28;20125;-75
2023/04/21 08:08:39;;;;;;;265.52;240.27;;;;;;;;;;5004706;28;20053;-74
2023/04/21 08:11:06;;;;;;;270.63;251.40;;;;;;;;;;5007091;28;20137;-74
2023/04/21 08:13:35;;;;;;;271.30;247.95;;;;;;;;;;5003748;28;20060;-74
2023/04/21 08:16:02;;;;;;;282.35;260.15;;;;;;;;;;5003384;28;20073;-74
2023/04/21 08:18:28;;;;;;;294.33;272.65;;;;;;;;;;5004245;28;20129;-75
2023/04/21 08:20:56;;;;;;;328.83;301.75;;;;;;;;;;5004251;28;20060;-74
2023/04/21 08:23:23;;;;;;;329.02;304.02;;;;;;;;;;5007045;28;20060;-74
2023/04/21 08:25:50;;;;;;;337.40;312.13;;;;;;;;;;5000980;28;20034;-74
2023/04/21 08:28:16;;;;;;;358.25;328.95;;;;;;;;;;5006944;28;20152;-74
2023/04/21 08:30:43;;;;;;;378.33;345.63;;;;;;;;;;5004856;28;20046;-74
2023/04/21 08:33:12;;;;;;;357.67;331.35;;;;;;;;;;5005173;28;20058;-74
2023/04/21 08:35:40;;;;;;;351.85;324.73;;;;;;;;;;5005723;28;20038;-75
2023/04/21 08:38:26;;;;;;;341.25;316.88;;;;;;;;;;5006241;28;20042;-74
2023/04/21 08:40:54;;;;;;;390.33;360.77;;;;;;;;;;5000150;28;20463;-74
2023/04/21 08:43:21;;;;;;;425.48;387.75;;;;;;;;;;5001356;28;20046;-75
2023/04/21 08:45:47;;;;;;;419.75;389.73;;;;;;;;;;5003014;28;20104;-74
2023/04/21 08:48:17;;;;;;;483.15;445.67;;;;;;;;;;5004543;28;20050;-74
2023/04/21 08:50:45;;;;;;;476.52;437.15;;;;;;;;;;5004210;28;20045;-74
2023/04/21 08:53:12;;;;;;;443.60;411.15;;;;;;;;;;4985995;28;20058;-74
2023/04/21 08:55:39;;;;;;;429.38;395.05;;;;;;;;;;5006162;28;20498;-74
2023/04/21 08:58:07;;;;;;;371.15;340.92;;;;;;;;;;5005878;28;20042;-74
2023/04/21 09:00:35;;;;;;;353.98;330.25;;;;;;;;;;5011264;28;20077;-74
2023/04/21 09:03:02;;;;;;;342.50;313.63;;;;;;;;;;5004496;28;20058;-74
2023/04/21 09:05:36;;;;;;;324.17;298.02;;;;;;;;;;4986293;28;20038;-75
2023/04/21 09:08:11;;;;;;;296.45;272.50;;;;;;;;;;5005548;28;20486;-74
2023/04/21 09:10:45;;;;;;;325.38;298.45;;;;;;;;;;5008300;28;20106;-75
2023/04/21 09:13:12;;;;;;;360.20;330.20;;;;;;;;;;5006220;28;20500;-74
2023/04/21 09:15:39;;;;;;;351.33;321.60;;;;;;;;;;5008137;28;20068;-74
2023/04/21 09:18:12;;;;;;;333.00;306.40;;;;;;;;;;5005405;28;20887;-74
2023/04/21 09:20:39;;;;;;;310.95;283.35;;;;;;;;;;5007872;28;20038;-75
2023/04/21 09:23:06;;;;;;;329.05;303.70;;;;;;;;;;5007486;28;20665;-74
2023/04/21 09:25:33;;;;;;;362.98;336.52;;;;;;;;;;5005918;28;20096;-74
2023/04/21 09:28:00;;;;;;;427.42;397.67;;;;;;;;;;5009641;28;20041;-75
2023/04/21 09:30:26;;;;;;;494.42;453.83;;;;;;;;;;5006857;28;20061;-74
2023/04/21 09:32:57;;;;;;;500.30;463.42;;;;;;;;;;5009200;28;20052;-74
2023/04/21 09:35:27;;;;;;;402.73;371.63;;;;;;;;;;5006469;28;20045;-74
2023/04/21 09:37:54;;;;;;;402.08;371.52;;;;;;;;;;5004377;28;20044;-74
2023/04/21 09:40:20;;;;;;;406.27;372.63;;;;;;;;;;5010735;28;20388;-74
2023/04/21 09:42:48;;;;;;;514.58;473.85;;;;;;;;;;5006126;28;20041;-74
2023/04/21 09:45:15;;;;;;;508.17;467.55;;;;;;;;;;4986945;28;20053;-74
2023/04/21 09:48:02;;;;;;;457.83;425.08;;;;;;;;;;5005714;28;20053;-74
2023/04/21 09:50:29;;;;;;;391.67;362.52;;;;;;;;;;5006623;28;20438;-74
2023/04/21 09:53:01;;;;;;;327.67;306.33;;;;;;;;;;5005320;28;20042;-75
2023/04/21 09:55:28;;;;;;;366.50;334.25;;;;;;;;;;5004046;28;20558;-74
2023/04/21 09:57:56;;;;;;;352.60;325.23;;;;;;;;;;5005753;28;20061;-74
2023/04/21 10:00:26;;;;;;;336.10;312.92;;;;;;;;;;5006623;28;20050;-73
2023/04/21 10:02:53;;;;;;;367.92;340.65;;;;;;;;;;5005691;28;20054;-74
2023/04/21 10:05:21;;;;;;;371.38;337.40;;;;;;;;;;5005846;28;20076;-74
2023/04/21 10:07:49;;;;;;;358.73;332.05;;;;;;;;;;5005495;28;20074;-74
2023/04/21 10:10:17;;;;;;;358.50;328.67;;;;;;;;;;4992545;28;20141;-74
2023/04/21 10:12:44;;;;;;;345.35;317.15;;;;;;;;;;5007384;28;20073;-74
2023/04/21 10:15:30;;;;;;;335.52;309.88;;;;;;;;;;5003970;28;20077;-74
2023/04/21 10:18:14;;;;;;;379.15;342.35;;;;;;;;;;5008425;28;20037;-73
2023/04/21 10:20:58;;;;;;;520.40;479.70;;;;;;;;;;5006926;28;20121;-73
2023/04/21 10:23:35;;;;;;;454.60;423.17;;;;;;;;;;5007913;28;20037;-73
2023/04/21 10:26:01;;;;;;;411.27;383.60;;;;;;;;;;5009456;28;20038;-73
2023/04/21 10:28:38;;;;;;;437.48;407.67;;;;;;;;;;4989244;28;20042;-74
2023/04/21 10:31:20;;;;;;;426.25;396.88;;;;;;;;;;5005822;28;20046;-74
2023/04/21 10:34:10;;;;;;;423.52;393.83;;;;;;;;;;5008776;28;20141;-74
2023/04/21 10:36:42;;;;;;;404.23;376.02;;;;;;;;;;5008736;28;20476;-61
2023/04/21 10:39:14;;;;;;;344.48;321.52;;;;;;;;;;4984017;28;20105;-72
2023/04/21 10:41:45;;;;;;;326.00;303.05;;;;;;;;;;5008017;28;20542;-69
2023/04/21 10:44:12;;;;;;;297.95;278.02;;;;;;;;;;5007270;28;20042;-69
2023/04/21 10:46:40;;;;;;;287.05;267.65;;;;;;;;;;5009075;28;20490;-69
2023/04/21 10:49:11;;;;;;;303.40;283.10;;;;;;;;;;5006099;28;20046;-69
2023/04/21 10:51:56;;;;;;;284.63;264.75;;;;;;;;;;4991718;28;20101;-67
2023/04/21 10:54:24;;;;;;;274.85;255.90;;;;;;;;;;5007362;28;20058;-67
2023/04/21 10:56:52;;;;;;;276.80;256.50;;;;;;;;;;5004856;28;20125;-67
2023/04/21 10:59:19;;;;;;;258.25;240.18;;;;;;;;;;4988297;28;20518;-66
2023/04/21 11:01:45;;;;;;;273.70;251.15;;;;;;;;;;5006639;28;20065;-66
2023/04/21 11:04:15;;;;;;;261.48;240.98;;;;;;;;;;5006276;28;20117;-67
2023/04/21 11:06:42;;;;;;;244.65;227.75;;;;;;;;;;5008450;28;20045;-67
2023/04/21 11:09:09;;;;;;;254.73;235.70;;;;;;;;;;5006846;28;20047;-68
2023/04/21 11:11:36;;;;;;;249.95;230.35;;;;;;;;;;5012478;28;20113;-67
2023/04/21 11:14:02;;;;;;;249.20;228.73;;;;;;;;;;4993164;28;20088;-66
2023/04/21 11:16:29;;;;;;;249.48;229.93;;;;;;;;;;5002731;28;20046;-67
2023/04/21 11:18:56;;;;;;;244.45;225.88;;;;;;;;;;5008255;28;20042;-67
2023/04/21 11:21:23;;;;;;;244.10;228.52;;;;;;;;;;5007734;28;20050;-67
2023/04/21 11:23:51;;;;;;;221.70;206.07;;;;;;;;;;5010152;28;20053;-68
2023/04/21 11:26:28;;;;;;;249.80;229.30;;;;;;;;;;5007594;28;20046;-67
2023/04/21 11:28:54;;;;;;;242.60;225.27;;;;;;;;;;5006518;28;20044;-67
2023/04/21 11:31:26;;;;;;;241.30;218.52;;;;;;;;;;5004289;28;20056;-67
2023/04/21 11:33:54;;;;;;;227.03;211.60;;;;;;;;;;5010986;28;20124;-68
2023/04/21 11:36:21;;;;;;;225.68;209.80;;;;;;;;;;5008964;28;20291;-67
2023/04/21 11:38:48;;;;;;;232.50;215.02;;;;;;;;;;5008975;28;20072;-69
2023/04/21 11:41:21;;;;;;;230.00;213.32;;;;;;;;;;5006443;28;20081;-69
2023/04/21 11:43:49;;;;;;;243.35;225.88;;;;;;;;;;5010490;28;20046;-67
2023/04/21 11:46:19;;;;;;;260.95;237.15;;;;;;;;;;5004798;28;20125;-67
2023/04/21 11:48:56;;;;;;;244.10;224.75;;;;;;;;;;5007844;28;20052;-67
2023/04/21 11:51:23;;;;;;;230.40;212.93;;;;;;;;;;5004507;28;20050;-67
2023/04/21 11:53:49;;;;;;;227.85;211.55;;;;;;;;;;5006087;28;20046;-67
2023/04/21 11:56:18;;;;;;;231.15;213.38;;;;;;;;;;5005430;28;20084;-61
2023/04/21 11:58:45;;;;;;;239.55;221.60;;;;;;;;;;4993114;28;20491;-67
2023/04/21 12:01:14;;;;;;;242.70;224.13;;;;;;;;;;4993809;28;20053;-68
2023/04/21 12:03:40;;;;;;;223.48;208.32;;;;;;;;;;5007726;28;20050;-67
2023/04/21 12:06:07;;;;;;;232.80;214.60;;;;;;;;;;5006230;28;20053;-67
2023/04/21 12:08:34;;;;;;;229.43;212.40;;;;;;;;;;5007613;28;20137;-67
2023/04/21 12:11:01;;;;;;;227.57;210.57;;;;;;;;;;5007125;28;20038;-66
2023/04/21 12:13:28;;;;;;;228.52;209.95;;;;;;;;;;5003043;28;20050;-68
2023/04/21 12:15:55;;;;;;;207.32;190.27;;;;;;;;;;5008349;28;20072;-67
2023/04/21 12:18:26;;;;;;;185.18;168.88;;;;;;;;;;5006038;28;20397;-67
2023/04/21 12:20:53;;;;;;;169.38;156.48;;;;;;;;;;5006180;28;20480;-67
2023/04/21 12:23:20;;;;;;;151.82;139.70;;;;;;;;;;5006690;28;20073;-68
2023/04/21 12:25:46;;;;;;;247.63;138.30;;;;;;;;;;5005336;28;20057;-69
2023/04/21 12:28:17;;;;;;;167.70;102.13;;;;;;;;;;5010186;28;20045;-67
2023/04/21 12:30:45;;;;;;;99.03;84.05;;;;;;;;;;5010898;28;20048;-66
2023/04/21 12:33:12;;;;;;;89.35;82.30;;;;;;;;;;5010441;28;20073;-66
2023/04/21 12:35:39;;;;;;;101.10;81.13;;;;;;;;;;5011624;28;20034;-67
2023/04/21 12:38:05;;;;;;;86.32;78.45;;;;;;;;;;5009487;28;20378;-67
2023/04/21 12:40:32;;;;;;;93.45;83.03;;;;;;;;;;5008722;28;20045;-66
2023/04/21 12:42:58;;;;;;;252.65;234.15;;;;;;;;;;5013719;28;20077;-68
2023/04/21 12:45:25;;;;;;;231.65;215.98;;;;;;;;;;5008501;28;20046;-66
2023/04/21 12:47:53;;;;;;;244.52;227.35;;;;;;;;;;4985861;28;20046;-68
2023/04/21 12:50:20;;;;;;;235.00;219.68;;;;;;;;;;5010167;28;20104;-67
2023/04/21 12:52:48;;;;;;;232.80;216.32;;;;;;;;;;5010185;28;20125;-68
2023/04/21 12:55:15;;;;;;;249.55;227.70;;;;;;;;;;5009487;28;20054;-66
2023/04/21 12:57:42;;;;;;;248.63;227.18;;;;;;;;;;5010318;28;20129;-67
2023/04/21 13:00:11;;;;;;;254.52;215.68;;;;;;;;;;5011517;28;20125;-68
2023/04/21 13:02:38;;;;;;;255.80;232.73;;;;;;;;;;5008319;28;20056;-68
2023/04/21 13:05:05;;;;;;;236.88;218.30;;;;;;;;;;5004830;28;20157;-67
2023/04/21 13:07:32;;;;;;;231.15;214.77;;;;;;;;;;5003566;28;20034;-66
2023/04/21 13:09:59;;;;;;;245.07;224.55;;;;;;;;;;4995005;28;20100;-67
2023/04/21 13:12:26;;;;;;;238.18;219.10;;;;;;;;;;5008983;28;20100;-67
2023/04/21 13:14:52;;;;;;;240.80;219.48;;;;;;;;;;5009400;28;20495;-67
2023/04/21 13:17:19;;;;;;;244.02;223.32;;;;;;;;;;5007178;28;20756;-67
2023/04/21 13:19:48;;;;;;;240.70;219.38;;;;;;;;;;5004942;28;20100;-67
2023/04/21 13:22:15;;;;;;;243.50;222.30;;;;;;;;;;5005951;28;20137;-67
2023/04/21 13:24:42;;;;;;;81.68;38.83;;;;;;;;;;5008618;28;20510;-67
2023/04/21 13:27:08;;;;;;;72.82;27.65;;;;;;;;;;5004906;28;20038;-67
2023/04/21 13:29:35;;;;;;;66.30;18.45;;;;;;;;;;5008274;28;20545;-67
2023/04/21 13:32:06;;;;;;;35.40;14.93;;;;;;;;;;5004723;28;20100;-69
2023/04/21 13:34:33;;;;;;;49.05;13.63;;;;;;;;;;4987595;28;20054;-67
2023/04/21 13:37:00;;;;;;;39.03;8.88;;;;;;;;;;5007015;28;20570;-69
2023/04/21 13:39:27;;;;;;;32.25;8.52;;;;;;;;;;5006739;28;20714;-68
2023/04/21 13:41:53;;;;;;;64.97;10.10;;;;;;;;;;5009963;28;20121;-68
2023/04/21 13:44:20;;;;;;;49.17;7.53;;;;;;;;;;5010347;28;20128;-68
2023/04/21 13:46:47;;;;;;;48.80;6.97;;;;;;;;;;5008502;28;20056;-68
2023/04/21 13:49:13;;;;;;;82.00;9.48;;;;;;;;;;5006509;28;20558;-68
2023/04/21 13:51:40;;;;;;;70.95;30.67;;;;;;;;;;5008993;28;20042;-67
2023/04/21 13:54:07;;;;;;;48.90;5.93;;;;;;;;;;4987289;28;20049;-67
2023/04/21 13:56:35;;;;;;;34.70;4.60;;;;;;;;;;5008205;28;20092;-67
2023/04/21 13:59:01;;;;;;;130.95;11.90;;;;;;;;;;5005051;28;20042;-66
2023/04/21 14:01:28;;;;;;;96.85;9.48;;;;;;;;;;5004611;28;20104;-68
2023/04/21 14:03:55;;;;;;;56.78;6.63;;;;;;;;;;4995282;28;20054;-62
2023/04/21 14:06:23;;;;;;;44.05;5.72;;;;;;;;;;4986171;28;20100;-65
2023/04/21 14:08:50;;;;;;;59.40;7.30;;;;;;;;;;5007803;28;20050;-64
2023/04/21 14:11:16;;;;;;;73.22;8.07;;;;;;;;;;5010845;28;20377;-64
2023/04/21 14:13:43;;;;;;;125.90;10.05;;;;;;;;;;5010401;28;20133;-63